Latest Weather Observations for Gudgenby

IDN60901

Issued at 5:51 am EST Monday 6 April 2020 (issued every 10 minutes, with the page automatically refreshed every 10 minutes)

About weather observations | Map of Canberra area stations | Latest observations for Canberra area | Other Formats
Station Details ID: 250072 Name: GUDGENBY (PCS) Lat: -35.73 Lon: 148.98 Height: 1035.0 m

Portable automatic weather stations (PAWS) are operated by other organisations, such as Fire and Emergency Services, and are included here by agreement. Portable stations may be deployed to a location for a short period and their location may be subject to change without notice. Wind observations from these stations are provided from heights of either three (3) or ten (10) metres above ground level (AGL).

Data from the previous 72 hours. | See also: Recent months for locations in Aust Capital Territory
Date/Time
EST
Temp
°C
App
Temp
°C
Dew
Point
°C
Rel
Hum
%
Delta-T
°C
Wind Press
QNH
hPa
Press
MSL
hPa
Rain since
9am
mm
Dir  Spd
km/h
Gust
km/h
Spd
kts
Gust
kts
06/05:40am 8.8 5.4 7.6 92 0.6 NNW 15 17 8 9 - - 0.0
06/05:30am 9.5 7.1 7.1 85 1.2 WNW 9 13 5 7 - - 0.0
06/05:20am 9.9 7.4 6.5 79 1.7 NW 9 15 5 8 - - 0.0
06/05:10am 9.7 6.1 6.8 82 1.4 NNW 15 19 8 10 - - 0.0
06/05:00am 9.5 6.2 6.5 81 1.5 NW 13 17 7 9 - - 0.0
06/04:50am 9.4 7.4 7.2 86 1.1 NNW 7 9 4 5 - - 0.0
06/04:40am 9.7 7.6 6.8 82 1.4 NW 7 11 4 6 - - 0.0
06/04:30am 9.4 7.0 6.9 84 1.2 NW 9 13 5 7 - - 0.0
06/04:20am 9.7 6.9 7.0 83 1.4 N 11 15 6 8 - - 0.0
06/04:10am 10.1 7.2 6.7 79 1.7 NW 11 15 6 8 - - 0.0
06/04:00am 10.2 8.0 6.3 77 1.9 W 7 13 4 7 - - 0.0
06/03:50am 9.9 7.4 6.4 79 1.7 NNW 9 13 5 7 - - 0.0
06/03:40am 9.9 7.4 6.5 79 1.7 NNW 9 15 5 8 - - 0.0
06/03:30am 9.7 7.1 6.2 79 1.7 NW 9 13 5 7 - - 0.0
06/03:20am 9.6 6.4 6.7 82 1.4 NNW 13 17 7 9 - - 0.0
06/03:10am 9.4 6.6 7.0 85 1.2 NW 11 15 6 8 - - 0.0
06/03:00am 9.6 6.1 7.0 84 1.3 NNW 15 17 8 9 - - 0.0
06/02:50am 9.5 6.0 7.1 85 1.2 NNW 15 17 8 9 - - 0.0
06/02:40am 9.3 5.8 7.2 87 1.1 NNW 15 17 8 9 - - 0.0
06/02:30am 9.2 6.1 7.2 87 1.0 NW 13 15 7 8 - - 0.0
06/02:20am 9.3 6.2 7.2 87 1.1 NW 13 17 7 9 - - 0.0
06/02:10am 9.3 5.8 7.4 88 1.0 NW 15 17 8 9 - - 0.0
06/02:00am 9.5 5.6 7.2 85 1.2 NNW 17 20 9 11 - - 0.0
06/01:50am 9.6 6.1 7.0 84 1.3 NW 15 20 8 11 - - 0.0
06/01:40am 9.8 5.9 7.1 83 1.4 NNW 17 20 9 11 - - 0.0
06/01:30am 9.8 5.8 6.6 80 1.6 NNW 17 20 9 11 - - 0.0
06/01:20am 9.9 6.6 6.6 80 1.6 NNW 13 17 7 9 - - 0.0
06/01:10am 9.7 5.7 6.7 81 1.5 NNW 17 20 9 11 - - 0.0
06/01:00am 9.7 6.1 6.7 81 1.5 NNW 15 17 8 9 - - 0.0
06/12:50am 9.6 6.0 6.6 81 1.5 NNW 15 20 8 11 - - 0.0
06/12:40am 9.6 5.7 6.9 83 1.3 NNW 17 22 9 12 - - 0.0
06/12:30am 9.5 5.9 6.7 83 1.4 NNW 15 19 8 10 - - 0.0
06/12:20am 9.4 6.2 7.0 85 1.2 NNW 13 19 7 10 - - 0.0
06/12:10am 9.4 5.9 7.0 85 1.2 NNW 15 17 8 9 - - 0.0
06/12:00am 9.5 6.0 7.1 85 1.2 NW 15 22 8 12 - - 0.0
 
Date/Time
EST
Temp
°C
App
Temp
°C
Dew
Point
°C
Rel
Hum
%
Delta-T
°C
Wind Press
QNH
hPa
Press
MSL
hPa
Rain since
9am
mm
Dir  Spd
km/h
Gust
km/h
Spd
kts
Gust
kts
05/11:50pm 9.4 5.8 6.7 83 1.3 NNW 15 20 8 11 - - 0.0
05/11:40pm 9.4 6.2 6.9 84 1.2 NW 13 17 7 9 - - 0.0
05/11:30pm 9.4 5.7 6.5 82 1.4 NW 15 20 8 11 - - 0.0
05/11:20pm 9.4 7.0 6.8 84 1.3 NW 9 15 5 8 - - 0.0
05/11:10pm 9.5 6.6 6.6 82 1.4 WNW 11 17 6 9 - - 0.0
05/11:00pm 9.6 5.9 6.5 81 1.5 NW 15 22 8 12 - - 0.0
05/10:50pm 9.7 5.0 6.2 79 1.7 WNW 20 35 11 19 - - 0.0
05/10:40pm 9.5 6.6 6.3 80 1.6 NW 11 15 6 8 - - 0.0
05/10:30pm 9.4 5.7 6.3 81 1.5 NW 15 20 8 11 - - 0.0
05/10:20pm 9.5 6.2 6.4 81 1.5 NW 13 22 7 12 - - 0.0
05/10:10pm 9.5 7.3 6.3 80 1.6 NW 7 11 4 6 - - 0.0
05/10:00pm 9.7 6.3 6.0 78 1.8 NW 13 20 7 11 - - 0.0
05/09:50pm 10.0 7.7 5.5 73 2.2 N 7 15 4 8 - - 0.0
05/09:40pm 10.0 7.7 5.5 73 2.2 NNE 7 13 4 7 - - 0.0
05/09:30pm 9.9 6.9 5.8 75 2.0 NW 11 13 6 7 - - 0.0
05/09:20pm 9.9 5.2 5.2 72 2.3 WNW 19 30 10 16 - - 0.0
05/09:10pm 9.9 6.4 5.5 74 2.1 NW 13 24 7 13 - - 0.0
05/09:00pm 9.8 5.8 5.1 72 2.3 W 15 32 8 17 - - 0.0
05/08:50pm 9.6 4.0 5.5 75 2.0 NW 24 30 13 16 - - 0.0
05/08:40pm 9.6 5.7 5.2 74 2.1 NW 15 19 8 10 - - 0.0
05/08:30pm 9.7 4.8 5.3 74 2.1 WNW 20 33 11 18 - - 0.0
05/08:20pm 9.6 5.2 5.0 73 2.2 WNW 17 26 9 14 - - 0.0
05/08:10pm 9.3 5.3 5.0 74 2.1 WNW 15 22 8 12 - - 0.0
05/08:00pm 9.0 5.1 5.2 77 1.8 NW 15 20 8 11 - - 0.0
05/07:50pm 8.9 4.7 5.5 79 1.6 NW 17 24 9 13 - - 0.0
05/07:40pm 8.8 4.5 5.1 77 1.8 NW 17 26 9 14 - - 0.0
05/07:30pm 8.6 4.7 5.3 80 1.6 NW 15 20 8 11 - - 0.0
05/07:20pm 8.5 3.8 5.2 80 1.6 NW 19 22 10 12 - - 0.0
05/07:10pm 8.5 3.8 5.1 79 1.6 NW 19 24 10 13 - - 0.0
05/07:00pm 8.4 3.7 5.3 81 1.5 NW 19 26 10 14 - - 0.0
05/06:50pm 8.1 2.9 5.4 83 1.3 NW 22 26 12 14 - - 0.0
05/06:40pm 8.1 3.3 5.4 83 1.3 NNW 20 22 11 12 - - 0.0
05/06:30pm 8.0 2.7 5.2 82 1.3 NNW 22 26 12 14 - - 0.0
05/06:20pm 8.0 3.2 5.4 84 1.2 NNW 20 24 11 13 - - 0.0
05/06:10pm 8.1 2.9 5.4 83 1.3 NW 22 30 12 16 - - 0.0
05/06:00pm 8.1 3.2 5.3 82 1.3 NW 20 26 11 14 - - 0.0
05/05:50pm 8.2 3.0 5.3 82 1.4 NNW 22 28 12 15 - - 0.0
05/05:40pm 8.4 2.8 5.3 81 1.5 NW 24 28 13 15 - - 0.0
05/05:30pm 8.7 2.9 4.4 74 2.0 NW 24 32 13 17 - - 0.0
05/05:20pm 8.8 3.8 4.8 76 1.9 NNW 20 24 11 13 - - 0.0
05/05:10pm 9.1 4.3 4.8 74 2.0 NW 19 28 10 15 - - 0.0
05/05:00pm 9.1 4.3 4.6 73 2.1 NW 19 28 10 15 - - 0.0
05/04:50pm 9.0 4.6 4.9 75 1.9 NW 17 24 9 13 - - 0.0
05/04:40pm 9.1 4.3 4.5 73 2.2 NW 19 30 10 16 - - 0.0
05/04:30pm 9.0 3.9 4.3 72 2.2 NNW 20 30 11 16 - - 0.0
05/04:20pm 9.1 4.6 4.4 72 2.2 NW 17 22 9 12 - - 0.0
05/04:10pm 9.1 4.0 4.1 71 2.3 NW 20 28 11 15 - - 0.0
05/04:00pm 9.1 4.0 4.3 72 2.3 WNW 20 28 11 15 - - 0.0
05/03:50pm 9.2 4.8 4.7 73 2.1 NW 17 24 9 13 - - 0.0
05/03:40pm 9.2 4.8 4.7 73 2.1 NW 17 24 9 13 - - 0.0
05/03:30pm 9.2 5.1 4.6 73 2.2 NW 15 19 8 10 - - 0.0
05/03:20pm 9.2 6.2 3.9 69 2.5 WNW 9 17 5 9 - - 0.0
05/03:10pm 9.0 4.9 4.1 71 2.3 NW 15 19 8 10 - - 0.0
05/03:00pm 9.0 4.3 3.4 68 2.6 NW 17 33 9 18 - - 0.0
05/02:50pm 8.9 4.3 3.9 71 2.3 NW 17 32 9 17 - - 0.0
05/02:40pm 9.2 4.0 3.8 69 2.5 NW 20 30 11 16 - - 0.0
05/02:30pm 9.3 4.7 3.5 67 2.7 NW 17 22 9 12 - - 0.0
05/02:20pm 9.3 2.6 3.4 66 2.7 NW 28 37 15 20 - - 0.0
05/02:10pm 9.5 5.0 4.0 68 2.6 W 17 28 9 15 - - 0.0
05/02:00pm 9.7 4.5 3.8 66 2.8 WNW 20 28 11 15 - - 0.0
05/01:50pm 9.4 3.0 3.4 66 2.8 WNW 26 32 14 17 - - 0.0
05/01:40pm 9.6 3.2 3.2 64 2.9 WNW 26 32 14 17 - - 0.0
05/01:30pm 9.9 4.4 4.2 67 2.7 NW 22 30 12 16 - - 0.0
05/01:20pm 9.8 3.8 3.5 65 2.9 NW 24 33 13 18 - - 0.0
05/01:10pm 9.9 4.0 4.1 67 2.7 WNW 24 37 13 20 - - 0.0
05/01:00pm 10.2 5.1 3.9 65 3.0 NW 20 32 11 17 - - 0.0
05/12:50pm 10.0 3.7 3.6 64 3.0 NW 26 33 14 18 - - 0.0
05/12:40pm 10.3 3.7 4.1 65 2.9 NW 28 41 15 22 - - 0.0
05/12:30pm 10.3 4.4 3.8 64 3.0 NW 24 33 13 18 - - 0.0
05/12:20pm 10.0 5.0 3.5 64 3.0 WNW 19 35 10 19 - - 0.0
05/12:10pm 9.5 3.9 3.5 66 2.8 WNW 22 33 12 18 - - 0.0
05/12:00pm 9.2 3.9 2.9 65 2.9 NW 20 39 11 21 - - 0.0
05/11:50am 8.9 4.2 3.3 68 2.6 WNW 17 24 9 13 - - 0.0
05/11:40am 8.7 4.1 3.5 70 2.4 NNW 17 26 9 14 - - 0.0
05/11:30am 8.8 2.2 2.1 63 3.0 WNW 26 43 14 23 - - 0.0
05/11:20am 9.1 2.6 2.9 65 2.8 WNW 26 30 14 16 - - 0.0
05/11:10am 9.4 4.3 3.0 64 2.9 WNW 19 24 10 13 - - 0.0
05/11:00am 9.2 3.5 2.7 64 2.9 WNW 22 37 12 20 - - 0.0
05/10:50am 9.2 4.1 3.0 65 2.8 WNW 19 26 10 14 - - 0.0
05/10:40am 9.0 4.6 2.5 64 2.9 W 15 28 8 15 - - 0.0
05/10:30am 8.7 4.4 3.2 68 2.5 WNW 15 26 8 14 - - 0.0
05/10:20am 8.1 3.1 1.5 63 2.9 W 17 32 9 17 - - 0.0
05/10:10am 7.7 1.8 1.9 67 2.5 NW 22 30 12 16 - - 0.0
05/10:00am 7.7 3.1 1.8 66 2.6 W 15 22 8 12 - - 0.0
05/09:50am 7.7 2.1 1.1 63 2.8 WNW 20 30 11 16 - - 0.0
05/09:40am 7.8 1.5 1.8 66 2.6 NW 24 33 13 18 - - 0.0
05/09:30am 7.5 0.9 1.8 67 2.5 WNW 26 33 14 18 - - 0.0
05/09:20am 7.2 0.5 1.3 66 2.5 W 26 39 14 21 - - 0.0
05/09:10am 7.1 1.6 0.7 64 2.7 NW 19 28 10 15 - - 0.0
05/09:00am 7.3 1.9 1.5 66 2.5 NW 19 26 10 14 - - 5.6
05/08:50am 7.0 0.5 0.3 62 2.8 NW 24 32 13 17 - - 5.6
05/08:40am 7.1 0.2 0.0 60 3.0 WNW 26 41 14 22 - - 5.6
05/08:30am 6.9 -0.2 -0.9 57 3.2 WNW 26 35 14 19 - - 5.6
05/08:20am 6.9 0.7 -0.2 60 2.9 WNW 22 28 12 15 - - 5.6
05/08:10am 6.7 1.8 -0.7 59 3.0 WNW 15 24 8 13 - - 5.6
05/08:00am 6.1 0.4 -0.8 61 2.8 NW 19 24 10 13 - - 5.6
05/07:50am 5.9 0.2 -0.8 62 2.7 WNW 19 30 10 16 - - 5.6
05/07:40am 6.1 0.2 -0.5 62 2.7 WNW 20 32 11 17 - - 5.6
05/07:30am 6.0 -0.3 -0.7 62 2.7 WNW 22 30 12 16 - - 5.6
05/07:20am 6.0 0.6 -1.2 60 2.9 WNW 17 26 9 14 - - 5.6
05/07:10am 5.8 -0.8 -0.3 65 2.5 WNW 24 37 13 20 - - 5.6
05/07:00am 5.9 -0.2 0.3 67 2.3 WNW 22 26 12 14 - - 5.6
05/06:50am 5.9 -1.0 0.3 67 2.3 WNW 26 43 14 23 - - 5.6
05/06:40am 5.8 -1.4 0.9 71 2.1 WNW 28 39 15 21 - - 5.6
05/06:30am 5.8 -1.1 0.3 68 2.3 WNW 26 35 14 19 - - 5.6
05/06:20am 5.9 -0.2 0.5 68 2.3 WNW 22 30 12 16 - - 5.6
05/06:10am 5.9 -1.7 0.4 68 2.3 WNW 30 37 16 20 - - 5.6
05/06:00am 5.9 -1.7 0.4 68 2.3 WNW 30 39 16 21 - - 5.6
05/05:50am 5.9 -1.3 0.9 70 2.1 W 28 35 15 19 - - 5.6
05/05:40am 5.9 -1.2 1.2 72 2.0 WNW 28 37 15 20 - - 5.6
05/05:30am 6.0 -1.5 1.0 70 2.1 WNW 30 41 16 22 - - 5.6
05/05:20am 6.1 -2.7 1.1 70 2.1 W 37 48 20 26 - - 5.6
05/05:10am 6.2 -1.8 0.7 68 2.3 WNW 32 43 17 23 - - 5.6
05/05:00am 6.2 -0.6 0.6 67 2.3 WNW 26 35 14 19 - - 5.6
05/04:50am 6.2 1.1 0.8 68 2.3 W 17 28 9 15 - - 5.6
05/04:40am 6.2 1.6 1.7 73 1.9 W 15 22 8 12 - - 5.6
05/04:30am 6.3 1.4 1.7 72 2.0 W 17 30 9 16 - - 5.6
05/04:20am 6.3 1.8 1.9 73 1.9 W 15 26 8 14 - - 5.6
05/04:10am 6.5 1.2 2.0 73 2.0 W 19 35 10 19 - - 5.6
05/04:00am 6.5 0.6 1.6 71 2.1 W 22 35 12 19 - - 5.6
05/03:50am 6.3 2.2 2.0 74 1.9 W 13 22 7 12 - - 5.6
05/03:40am 6.3 2.2 2.0 74 1.9 W 13 28 7 15 - - 5.6
05/03:30am 6.2 1.6 1.7 73 1.9 W 15 26 8 14 - - 5.6
05/03:20am 6.3 2.9 1.8 73 1.9 WSW 9 13 5 7 - - 5.6
05/03:10am 6.5 1.5 1.2 69 2.3 W 17 33 9 18 - - 5.6
05/03:00am 6.6 0.6 1.0 67 2.4 W 22 33 12 18 - - 5.6
05/03:50am 6.6 1.5 0.6 65 2.5 WSW 17 28 9 15 - - 5.6
05/03:40am 6.5 1.8 0.8 67 2.4 W 15 28 8 15 - - 5.6
05/03:30am 6.7 1.2 0.8 66 2.5 W 19 37 10 20 - - 5.6
05/03:20am 6.6 -0.2 0.8 66 2.5 W 26 41 14 22 - - 5.6
05/03:10am 6.6 0.6 1.1 68 2.3 W 22 39 12 21 - - 5.6
05/03:00am 6.7 0.6 0.7 65 2.5 W 22 30 12 16 - - 5.6
05/02:50am 6.8 1.7 0.6 64 2.6 W 17 26 9 14 - - 5.6
05/02:40am 6.9 0.5 1.2 67 2.4 W 24 37 13 20 - - 5.6
05/02:30am 6.8 1.2 1.1 67 2.4 WNW 20 30 11 16 - - 5.6
05/02:20am 6.9 0.9 0.9 65 2.6 W 22 35 12 19 - - 5.6
05/02:10am 6.8 1.3 1.7 70 2.2 WNW 20 28 11 15 - - 5.6
05/02:00am 6.7 1.8 2.3 73 1.9 W 17 26 9 14 - - 5.6
05/01:50am 6.9 2.5 2.6 74 1.9 WNW 15 19 8 10 - - 5.6
05/01:40am 7.0 2.5 1.9 70 2.2 W 15 24 8 13 - - 5.6
05/01:30am 7.0 2.1 2.2 71 2.1 W 17 30 9 16 - - 5.6
05/01:20am 7.0 2.9 2.1 71 2.1 W 13 22 7 12 - - 5.6
05/01:10am 6.9 2.0 1.9 70 2.2 W 17 30 9 16 - - 5.6
05/01:00am 6.8 1.3 1.8 70 2.2 W 20 30 11 16 - - 5.6
05/12:50am 7.0 2.6 2.8 74 1.9 W 15 24 8 13 - - 5.6
05/12:40am 7.4 2.5 2.3 70 2.3 WSW 17 30 9 16 - - 5.6
05/12:30am 7.5 3.3 1.8 67 2.5 W 13 24 7 13 - - 5.6
05/12:20am 7.5 2.0 1.9 67 2.5 SW 20 32 11 17 - - 5.6
05/12:10am 7.6 2.7 2.1 68 2.4 W 17 28 9 15 - - 5.6
05/12:00am 7.6 3.0 1.3 64 2.7 W 15 20 8 11 - - 5.6
 
Date/Time
EST
Temp
°C
App
Temp
°C
Dew
Point
°C
Rel
Hum
%
Delta-T
°C
Wind Press
QNH
hPa
Press
MSL
hPa
Rain since
9am
mm
Dir  Spd
km/h
Gust
km/h
Spd
kts
Gust
kts
04/11:50pm 7.6 3.7 1.4 65 2.7 W 11 26 6 14 - - 5.6
04/11:40pm 7.5 4.5 0.8 62 2.9 NW 6 9 3 5 - - 5.6
04/11:30pm 7.6 2.2 1.2 64 2.8 WNW 19 33 10 18 - - 5.6
04/11:20pm 7.6 3.0 1.4 65 2.7 W 15 26 8 14 - - 5.6
04/11:10pm 7.6 3.4 1.5 65 2.6 WNW 13 22 7 12 - - 5.6
04/11:00pm 7.7 1.7 1.3 64 2.8 WNW 22 30 12 16 - - 5.6
04/10:50pm 7.6 3.4 1.8 67 2.5 WNW 13 22 7 12 - - 5.6
04/10:40pm 7.5 2.2 2.1 68 2.4 W 19 28 10 15 - - 5.6
04/10:30pm 7.5 2.3 2.4 70 2.3 WNW 19 30 10 16 - - 5.6
04/10:20pm 7.4 2.0 2.5 71 2.2 WNW 20 28 11 15 - - 5.6
04/10:10pm 7.5 1.3 2.4 70 2.3 WNW 24 35 13 19 - - 5.6
04/10:00pm 7.3 1.2 2.5 71 2.1 WNW 24 33 13 18 - - 5.6
04/09:50pm 7.2 1.0 2.2 70 2.2 NW 24 41 13 22 - - 5.6
04/09:40pm 7.0 0.8 1.9 70 2.2 WNW 24 33 13 18 - - 5.6
04/09:30pm 7.3 1.7 3.2 75 1.8 WNW 22 28 12 15 - - 5.6
04/09:20pm 7.5 1.1 3.3 75 1.9 WNW 26 35 14 19 - - 5.6
04/09:10pm 7.9 2.9 3.4 73 2.0 W 19 28 10 15 - - 5.2
04/09:00pm 7.9 0.1 3.0 71 2.2 WNW 33 41 18 22 - - 5.2
04/08:50pm 8.2 0.8 2.1 65 2.7 WNW 30 39 16 21 - - 5.2
04/08:40pm 8.3 0.6 2.2 65 2.7 NW 32 41 17 22 - - 5.2
04/08:30pm 8.4 1.0 1.8 63 2.9 WNW 30 35 16 19 - - 5.2
04/08:20pm 8.2 1.6 2.1 65 2.7 WNW 26 32 14 17 - - 5.2
04/08:10pm 8.4 1.7 1.7 63 2.9 WNW 26 33 14 18 - - 5.2
04/08:00pm 8.4 0.9 1.1 60 3.2 WNW 30 41 16 22 - - 5.2
04/07:50pm 8.4 0.7 2.3 65 2.7 WNW 32 39 17 21 - - 5.2
04/07:40pm 8.1 1.0 1.6 63 2.8 WNW 28 37 15 20 - - 5.2
04/07:30pm 8.0 -0.3 2.1 66 2.6 WNW 35 44 19 24 - - 5.2
04/07:20pm 7.9 -1.1 2.5 69 2.4 WNW 39 50 21 27 - - 5.2
04/07:10pm 8.2 -1.3 2.0 65 2.7 WNW 41 50 22 27 - - 5.2
04/07:00pm 8.1 -2.8 1.2 62 3.0 WNW 48 57 26 31 - - 5.2
04/06:50pm 7.7 -2.1 2.1 67 2.5 WNW 43 48 23 26 - - 5.2
04/06:40pm 7.9 -0.1 4.0 76 1.8 WNW 35 41 19 22 - - 4.8
04/06:30pm 8.6 0.2 3.6 71 2.3 WNW 37 44 20 24 - - 4.8
04/06:20pm 8.8 1.0 2.7 65 2.8 WNW 33 43 18 23 - - 4.8
04/06:10pm 8.9 0.8 3.1 67 2.6 WNW 35 43 19 23 - - 4.8
04/06:00pm 9.0 -1.0 2.0 61 3.1 WNW 44 56 24 30 - - 4.8
04/05:50pm 9.1 -0.6 2.8 64 2.9 WNW 43 56 23 30 - - 4.8
04/05:40pm 8.8 -0.1 3.3 68 2.5 WNW 39 44 21 24 - - 4.8
04/05:30pm 8.2 2.1 4.6 78 1.7 WNW 26 41 14 22 - - 4.8
04/05:20pm 8.1 1.2 4.7 79 1.6 WNW 30 37 16 20 - - 4.4
04/05:10pm 8.0 1.0 4.1 76 1.8 WNW 30 39 16 21 - - 4.4
04/05:00pm 7.6 1.5 4.6 81 1.4 NW 26 33 14 18 - - 4.0
04/04:50pm 7.7 2.1 5.2 84 1.2 NW 24 28 13 15 - - 3.6
04/04:40pm 8.3 2.3 5.4 82 1.4 WNW 26 32 14 17 - - 2.8
04/04:30pm 9.0 2.5 4.8 75 2.0 WNW 28 48 15 26 - - 2.0
04/04:20pm 9.2 2.3 4.7 73 2.1 WNW 30 35 16 19 - - 2.0
04/04:10pm 9.3 3.3 5.5 77 1.8 NW 26 32 14 17 - - 2.0
04/04:00pm 9.3 4.2 6.0 80 1.6 NW 22 30 12 16 - - 2.0
04/03:50pm 9.1 2.1 6.0 81 1.5 NW 32 37 17 20 - - 2.0
04/03:40pm 9.3 1.3 5.8 79 1.7 NW 37 44 20 24 - - 1.6
04/03:30pm 10.0 1.9 5.2 72 2.3 NW 37 43 20 23 - - 1.6
04/03:20pm 9.9 2.7 5.1 72 2.3 WNW 32 41 17 22 - - 1.6
04/03:10pm 10.2 2.6 5.6 73 2.2 WNW 35 43 19 23 - - 1.6
04/03:00pm 11.1 3.4 5.2 67 2.9 WNW 35 43 19 23 - - 1.6
04/02:50pm 11.1 3.6 4.2 62 3.3 WNW 33 46 18 25 - - 1.6
04/02:40pm 11.2 3.3 4.3 62 3.3 WNW 35 43 19 23 - - 1.6
04/02:30pm 11.7 3.9 3.0 55 4.1 W 33 43 18 23 - - 1.6
04/02:20pm 12.1 4.1 3.9 57 3.9 WNW 35 41 19 22 - - 1.6
04/02:10pm 11.8 3.0 3.8 58 3.8 WNW 39 52 21 28 - - 1.6
04/02:00pm 11.5 2.3 5.5 66 2.9 WNW 43 54 23 29 - - 1.6
04/01:50pm 11.1 3.7 5.2 67 2.9 WNW 33 43 18 23 - - 1.6
04/01:40pm 10.8 2.4 5.7 71 2.5 WNW 39 48 21 26 - - 1.6
04/01:30pm 11.3 4.3 5.9 69 2.7 WNW 32 43 17 23 - - 1.2
04/01:20pm 10.8 4.2 6.0 72 2.4 W 30 37 16 20 - - 1.2
04/01:10pm 11.1 3.5 5.8 70 2.6 WNW 35 43 19 23 - - 1.2
04/01:00pm 12.1 3.8 4.4 59 3.7 WNW 37 48 20 26 - - 1.2
04/12:50pm 11.7 4.6 5.5 66 3.0 WNW 32 48 17 26 - - 1.0
04/12:40pm 12.3 4.1 4.8 60 3.6 WNW 37 50 20 27 - - 1.0
04/12:30pm 12.3 3.6 6.0 65 3.1 WNW 41 46 22 25 - - 1.0
04/12:20pm 12.3 3.4 7.0 70 2.7 NW 43 52 23 28 - - 1.0
04/12:10pm 12.4 3.8 6.3 66 3.1 NW 41 46 22 25 - - 1.0
04/12:00pm 11.9 3.1 7.2 73 2.4 NW 43 52 23 28 - - 1.0
04/11:50am 11.8 4.6 5.0 63 3.3 WNW 32 39 17 21 - - 0.8
04/11:40am 11.4 4.5 6.3 71 2.5 WNW 32 43 17 23 - - 0.8
04/11:30am 12.2 4.6 5.7 64 3.2 WNW 35 50 19 27 - - 0.8
04/11:20am 12.8 6.4 6.8 67 3.1 WNW 30 41 16 22 - - 0.8
04/11:10am 12.1 5.1 6.7 69 2.7 WNW 33 44 18 24 - - 0.8
04/11:00am 12.3 5.6 7.2 71 2.6 WNW 32 37 17 20 - - 0.8
04/10:50am 11.6 3.7 7.7 77 2.0 NW 39 44 21 24 - - 0.8
04/10:40am 13.4 6.4 8.4 72 2.6 NW 35 46 19 25 - - 0.4
04/10:30am 13.9 7.1 7.8 66 3.2 NW 33 43 18 23 - - 0.0
04/10:20am 13.7 8.8 6.9 63 3.5 WNW 22 32 12 17 - - 0.0
04/10:10am 13.4 6.6 6.9 65 3.3 WNW 32 37 17 20 - - 0.0
04/10:00am 12.7 5.8 6.5 66 3.1 WNW 32 41 17 22 - - 4.4
04/09:50am 13.3 5.5 6.7 64 3.4 NW 37 50 20 27 - - 4.4
04/09:40am 14.5 9.1 8.2 66 3.3 NW 26 33 14 18 - - 4.4
04/09:30am 14.5 10.1 7.6 63 3.6 NW 20 24 11 13 - - 4.4
04/09:20am 13.6 9.3 7.1 65 3.3 NW 19 24 10 13 - - 4.4
04/09:10am 13.4 8.8 8.0 70 2.8 NW 22 26 12 14 - - 4.4
04/09:00am 13.6 8.7 8.3 70 2.8 NW 24 37 13 20 - - 4.4
04/08:50am 13.6 8.2 7.8 68 3.0 NW 26 46 14 25 - - 4.4
04/08:40am 13.5 8.0 9.2 75 2.3 NW 28 44 15 24 - - 4.4
04/08:30am 13.5 10.2 9.5 77 2.2 NW 17 26 9 14 - - 4.4
04/08:20am 13.0 10.4 9.5 79 1.9 NW 13 20 7 11 - - 4.4
04/08:10am 12.6 9.4 10.1 85 1.4 NW 17 20 9 11 - - 4.4
04/08:00am 12.6 7.7 10.1 85 1.4 NNW 26 32 14 17 - - 4.0
04/07:50am 12.8 8.6 9.9 82 1.6 NNW 22 26 12 14 - - 3.6
04/07:40am 12.8 8.5 9.5 80 1.8 NNW 22 24 12 13 - - 3.6
04/07:30am 12.9 8.2 9.2 78 2.0 NW 24 30 13 16 - - 3.6
04/07:20am 13.0 9.6 9.1 77 2.1 NW 17 26 9 14 - - 3.6
04/07:10am 13.1 9.1 8.3 72 2.5 NW 19 33 10 18 - - 3.6
04/07:00am 13.1 9.6 8.9 75 2.2 N 17 28 9 15 - - 3.6
04/06:50am 12.4 11.5 9.1 80 1.8 N 4 7 2 4 - - 3.6
04/06:40am 12.6 11.3 9.3 80 1.8 N 6 11 3 6 - - 3.6
04/06:30am 12.4 9.8 9.3 81 1.7 N 13 19 7 10 - - 3.6
04/06:20am 12.5 10.0 9.8 83 1.5 NNE 13 15 7 8 - - 3.6
04/06:10am 12.9 9.5 9.0 77 2.1 NNW 17 20 9 11 - - 3.6
04/06:00am 13.1 9.0 8.6 74 2.4 NNW 20 28 11 15 - - 3.2
04/05:50am 12.9 9.0 9.3 79 1.9 NW 20 33 11 18 - - 3.2
04/05:40am 13.3 7.6 8.4 72 2.6 WNW 28 35 15 19 - - 3.0
04/05:30am 13.3 6.9 8.7 73 2.4 WNW 32 41 17 22 - - 2.8
04/05:20am 13.2 7.2 10.1 81 1.7 NW 32 41 17 22 - - 2.0
04/05:10am 13.0 9.0 10.6 85 1.3 NW 22 28 12 15 - - 1.6
04/05:00am 12.9 8.7 11.1 89 1.0 NW 24 28 13 15 - - 1.6
04/04:50am 12.9 8.4 11.3 90 0.9 NNW 26 30 14 16 - - 1.2
04/04:40am 12.5 8.7 11.3 92 0.7 NNW 22 24 12 13 - - 1.2
04/04:30am 11.7 10.0 11.3 97 0.2 N 11 20 6 11 - - 0.8
04/04:20am 10.7 9.8 10.7 100 0.0 NE 6 7 3 4 - - 0.4
04/04:10am 10.3 9.7 10.3 100 0.0 SSE 4 4 2 2 - - 0.4
04/04:00am 10.3 9.3 10.3 100 0.0 SSE 6 6 3 3 - - 0.4
04/03:50am 10.3 9.7 10.3 100 0.0 SSW 4 6 2 3 - - 0.4
04/03:40am 10.3 9.7 10.3 100 0.0 SSE 4 6 2 3 - - 0.4
04/03:30am 10.2 9.5 10.2 100 0.0 SSE 4 6 2 3 - - 0.4
04/03:20am 10.3 10.1 10.3 100 0.0 ESE 2 4 1 2 - - 0.4
04/03:10am 10.3 9.6 10.1 99 0.1 SE 4 6 2 3 - - 0.4
04/03:00am 10.4 9.4 10.3 99 0.1 E 6 6 3 3 - - 0.4
04/02:50am 10.4 9.8 10.3 99 0.1 ESE 4 6 2 3 - - 0.4
04/02:40am 10.6 10.4 10.4 99 0.1 E 2 4 1 2 - - 0.4
04/02:30am 10.8 10.3 10.6 99 0.1 N 4 6 2 3 - - 0.4
04/02:20am 10.6 10.4 10.3 98 0.2 N 2 4 1 2 - - 0.4
04/02:10am 10.7 10.5 10.5 99 0.1 S 2 2 1 1 - - 0.4
04/02:00am 10.7 10.5 10.5 99 0.1 WSW 2 4 1 2 - - 0.4
04/01:50am 10.6 10.0 10.5 99 0.1 SW 4 4 2 2 - - 0.4
04/01:40am 10.7 9.8 10.6 99 0.1 S 6 6 3 3 - - 0.4
04/01:30am 10.8 10.3 10.6 99 0.1 SSE 4 6 2 3 - - 0.4
04/01:20am 10.8 10.3 10.6 99 0.1 SSE 4 6 2 3 - - 0.4
04/01:10am 10.8 9.9 10.6 99 0.1 S 6 6 3 3 - - 0.4
04/01:00am 10.8 10.3 10.7 99 0.1 S 4 6 2 3 - - 0.4
04/12:50am 10.9 10.0 10.7 99 0.1 SSE 6 6 3 3 - - 0.4
04/12:40am 11.0 10.1 10.7 98 0.2 SSE 6 7 3 4 - - 0.4
04/12:30am 11.1 10.9 10.5 96 0.3 ENE 2 4 1 2 - - 0.4
04/12:20am 11.1 10.9 10.5 96 0.3 N 2 4 1 2 - - 0.4
04/12:10am 11.0 10.4 10.3 95 0.4 ENE 4 4 2 2 - - 0.4
04/12:00am 11.0 10.4 10.4 96 0.3 E 4 6 2 3 - - 0.4
 
Date/Time
EST
Temp
°C
App
Temp
°C
Dew
Point
°C
Rel
Hum
%
Delta-T
°C
Wind Press
QNH
hPa
Press
MSL
hPa
Rain since
9am
mm
Dir  Spd
km/h
Gust
km/h
Spd
kts
Gust
kts
03/11:50pm 11.0 10.8 10.4 96 0.3 SE 2 4 1 2 - - 0.4
03/11:40pm 11.1 10.9 10.4 95 0.4 NW 2 4 1 2 - - 0.4
03/11:30pm 11.1 10.8 10.2 94 0.5 NNE 2 4 1 2 - - 0.4
03/11:20pm 11.0 10.7 10.0 93 0.5 NE 2 4 1 2 - - 0.4
03/11:10pm 11.1 10.9 10.3 95 0.4 SE 2 4 1 2 - - 0.4
03/11:00pm 11.0 10.8 10.3 95 0.4 ESE 2 4 1 2 - - 0.4
03/10:50pm 11.0 10.8 10.5 97 0.3 ESE 2 4 1 2 - - 0.4
03/10:40pm 11.0 10.5 10.8 99 0.1 ESE 4 6 2 3 - - 0.4
03/10:30pm 11.1 10.6 10.9 99 0.1 ESE 4 4 2 2 - - 0.4
03/10:20pm 11.1 10.6 10.9 99 0.1 E 4 6 2 3 - - 0.4
03/10:10pm 11.2 10.7 10.9 98 0.2 SE 4 6 2 3 - - 0.4
03/10:00pm 11.2 11.1 10.8 97 0.2 NW 2 4 1 2 - - 0.4
03/09:50pm 11.2 10.7 10.8 97 0.2 NW 4 6 2 3 - - 0.4
03/09:40pm 11.2 10.4 10.9 98 0.2 W 6 6 3 3 - - 0.4
03/09:30pm 11.1 9.7 10.8 98 0.2 NNW 9 9 5 5 - - 0.4
03/09:20pm 11.1 9.7 10.8 98 0.2 NNW 9 9 5 5 - - 0.4
03/09:10pm 11.2 10.3 10.8 97 0.2 NW 6 6 3 3 - - 0.4
03/09:00pm 11.3 10.4 10.8 97 0.3 N 6 6 3 3 - - 0.4
03/08:50pm 11.2 10.3 10.8 97 0.2 NNE 6 6 3 3 - - 0.4
03/08:40pm 11.2 10.7 10.7 97 0.3 NNE 4 6 2 3 - - 0.4
03/08:30pm 11.1 10.6 10.6 97 0.3 E 4 4 2 2 - - 0.4
03/08:20pm 11.1 10.5 10.5 96 0.3 SE 4 4 2 2 - - 0.2
03/08:10pm 11.2 10.3 10.5 95 0.4 S 6 6 3 3 - - 0.2
03/08:00pm 11.2 10.6 10.5 95 0.4 SSW 4 6 2 3 - - 0.2
03/07:50pm 11.3 10.7 10.5 95 0.4 S 4 4 2 2 - - 0.0
03/07:40pm 11.4 11.2 10.4 94 0.5 S 2 4 1 2 - - 0.0
03/07:30pm 11.5 10.9 10.4 93 0.6 E 4 6 2 3 - - 0.0
03/07:20pm 11.6 10.6 10.3 92 0.7 ESE 6 6 3 3 - - 0.0
03/07:10pm 11.7 10.1 10.3 91 0.8 ENE 9 11 5 6 - - 0.0
03/07:00pm 11.9 9.9 10.2 89 0.9 ENE 11 11 6 6 - - 0.0
03/06:50pm 11.9 10.6 10.1 89 1.0 NE 7 11 4 6 - - 0.0
03/06:40pm 12.0 11.7 10.1 88 1.0 SW 2 4 1 2 - - 0.0
03/06:30pm 12.0 11.3 10.0 87 1.1 S 4 6 2 3 - - 0.0
03/06:20pm 12.1 11.4 10.2 88 1.0 SSW 4 6 2 3 - - 0.0
03/06:10pm 12.3 11.7 10.3 87 1.1 SSE 4 6 2 3 - - 0.0
03/06:00pm 12.4 11.8 10.4 88 1.1 SSE 4 6 2 3 - - 0.0
03/05:50pm 12.5 12.2 10.0 85 1.4 ENE 2 4 1 2 - - 0.0
03/05:40pm 12.4 11.3 9.8 84 1.4 NE 6 9 3 5 - - 0.0
03/05:30pm 12.5 11.2 9.8 83 1.5 NNE 7 11 4 6 - - 0.0
03/05:20pm 12.4 10.7 10.0 85 1.3 NNE 9 15 5 8 - - 0.0
03/05:10pm 12.4 9.2 9.9 85 1.4 NE 17 22 9 12 - - 0.0
03/05:00pm 12.3 9.0 9.7 84 1.4 NE 17 19 9 10 - - 0.0
03/04:50pm 12.4 8.6 9.8 84 1.4 NE 20 26 11 14 - - 0.0
03/04:40pm 12.5 8.8 10.0 85 1.4 NE 20 26 11 14 - - 0.0
03/04:30pm 12.9 10.1 10.1 83 1.5 ENE 15 26 8 14 - - 0.0
03/04:20pm 13.4 9.9 10.2 81 1.8 ENE 19 22 10 12 - - 0.0
03/04:10pm 13.8 10.6 6.9 63 3.5 NE 13 15 7 8 - - 0.0
03/04:00pm 13.7 11.8 9.1 74 2.5 N 9 15 5 8 - - 0.0
03/03:50pm 13.5 11.0 8.3 71 2.7 SSE 11 13 6 7 - - 0.0
03/03:40pm 13.3 11.5 9.5 78 2.0 S 9 9 5 5 - - 0.0
03/03:30pm 13.3 11.2 9.6 78 2.0 S 11 11 6 6 - - 0.0
03/03:20pm 13.3 11.6 9.8 79 1.9 S 9 9 5 5 - - 0.0
03/03:10pm 13.4 12.4 8.8 74 2.4 SSW 4 7 2 4 - - 0.0
03/03:00pm 13.1 11.6 9.1 77 2.1 NE 7 9 4 5 - - 0.0
03/02:50pm 13.1 11.7 8.8 75 2.3 NE 6 9 3 5 - - 0.0
03/02:40pm 12.8 10.5 8.9 77 2.1 NE 11 19 6 10 - - 0.0
03/02:30pm 12.9 10.0 9.8 81 1.7 NNE 15 20 8 11 - - 0.0
03/02:20pm 14.3 11.3 7.5 63 3.5 NW 13 15 7 8 - - 0.0
03/02:10pm 13.6 11.1 6.7 63 3.5 N 9 11 5 6 - - 0.0
03/02:00pm 13.0 10.3 8.9 76 2.2 NE 13 19 7 10 - - 0.0
03/01:50pm 13.0 9.5 8.9 76 2.2 NE 17 22 9 12 - - 0.0
03/01:40pm 13.0 10.3 9.0 77 2.1 NE 13 17 7 9 - - 0.0
03/01:30pm 12.8 10.0 8.6 75 2.2 NE 13 17 7 9 - - 0.0
03/01:20pm 12.8 10.1 9.0 78 2.0 ENE 13 13 7 7 - - 0.0
03/01:10pm 12.9 9.5 9.0 77 2.1 ENE 17 19 9 10 - - 0.0
03/01:00pm 13.2 9.7 8.7 74 2.4 NE 17 20 9 11 - - 0.0
03/12:50pm 13.6 10.7 8.1 69 2.9 NE 13 13 7 7 - - 0.0
03/12:40pm 13.6 11.2 8.6 72 2.7 NE 11 15 6 8 - - 0.0
03/12:30pm 13.8 11.6 5.4 57 4.2 E 6 7 3 4 - - 0.0
03/12:20pm 13.5 11.8 8.4 71 2.7 ENE 7 11 4 6 - - 0.0
03/12:10pm 13.5 11.7 7.9 69 2.9 E 7 9 4 5 - - 0.0
03/12:00pm 13.7 12.6 8.3 70 2.9 ENE 4 7 2 4 - - 0.0
03/11:50am 12.7 10.1 7.9 72 2.5 NE 11 19 6 10 - - 0.0
03/11:40am 11.9 8.6 7.9 76 2.1 NE 15 24 8 13 - - 0.0
03/11:30am 12.2 9.8 6.8 69 2.7 NE 9 15 5 8 - - 0.0
03/11:20am 11.7 7.5 7.3 74 2.2 ENE 19 22 10 12 - - 0.0
03/11:10am 12.4 8.9 7.3 71 2.6 ENE 15 19 8 10 - - 0.0
03/11:00am 12.5 9.5 6.1 65 3.2 NE 11 15 6 8 - - 0.0
03/10:50am 12.3 9.9 7.0 70 2.7 NE 9 11 5 6 - - 0.0
03/10:40am 12.9 10.0 6.4 64 3.3 NNE 11 13 6 7 - - 0.0
03/10:30am 12.9 9.3 3.2 51 4.6 NE 11 13 6 7 - - 0.0
03/10:20am 12.6 9.3 4.5 58 3.9 ENE 11 13 6 7 - - 0.0
03/10:10am 12.3 9.6 3.5 55 4.2 E 7 11 4 6 - - 0.0
03/10:00am 12.2 9.6 4.0 57 3.9 E 7 9 4 5 - - 7.2
03/09:50am 11.8 9.4 4.2 59 3.6 E 6 9 3 5 - - 7.2
03/09:40am 11.5 8.6 4.8 63 3.2 SE 9 11 5 6 - - 7.2
03/09:30am 11.6 9.3 5.9 68 2.8 ESE 7 9 4 5 - - 7.2
03/09:20am 11.2 8.4 5.0 65 3.0 E 9 13 5 7 - - 7.2
03/09:10am 11.1 8.4 5.4 68 2.8 ENE 9 11 5 6 - - 7.2
03/09:00am 10.7 7.8 4.8 67 2.8 E 9 13 5 7 - - 7.2
03/08:50am 10.4 7.9 4.0 64 3.0 - 6 7 3 4 - - 7.2
03/08:40am 10.4 8.4 4.2 65 2.9 SSE 4 6 2 3 - - 7.2
03/08:30am 9.9 7.5 4.5 69 2.6 SSE 6 7 3 4 - - 7.2
03/08:20am 10.5 8.4 3.8 63 3.1 SSE 4 6 2 3 - - 7.2
03/08:10am 10.7 8.5 3.4 60 3.4 SW 4 6 2 3 - - 7.2
03/08:00am 10.5 8.4 3.8 63 3.1 S 4 6 2 3 - - 7.2
03/07:50am 10.8 8.7 4.0 63 3.2 S 4 6 2 3 - - 7.2
03/07:40am 10.8 8.7 4.1 63 3.2 ESE 4 6 2 3 - - 7.2
03/07:30am 10.9 7.9 4.1 63 3.2 ENE 9 11 5 6 - - 7.2
03/07:20am 11.0 8.5 4.5 64 3.1 ENE 7 9 4 5 - - 7.2
03/07:10am 11.8 8.2 3.2 55 4.0 E 11 13 6 7 - - 7.2
03/07:00am 12.1 9.2 2.6 52 4.4 ENE 7 9 4 5 - - 7.2

Latest Capital City Observations: Canberra | Sydney | Melbourne | Brisbane | Adelaide | Perth | Hobart | Darwin

Other formats

Comma delimited format used in spreadsheet applications
http://www.bom.gov.au/fwo/IDN60903/IDN60903.99765.axf

JavaScript Object Notation format (JSON) in row-major order
http://www.bom.gov.au/fwo/IDN60903/IDN60903.99765.json

Data quality

Most of these data are generated automatically and are frequently updated. Quality checks on data are not normally performed. It is possible for incorrect values to appear. Refer to information at About Latest Weather Observations and please check the disclaimer before using these data.